sensor_id;sensor_type;location;lat;lon;timestamp;pressure;altitude;pressure_sealevel;temperature;humidity
73700;BME280;62005;50.082;8.988;2023-03-12T00:01:55;100198.63;;;-0.60;76.70
73700;BME280;62005;50.082;8.988;2023-03-12T00:11:58;100212.72;;;-0.59;76.60
73700;BME280;62005;50.082;8.988;2023-03-12T00:14:46;100228.22;;;-0.55;77.14
73700;BME280;62005;50.082;8.988;2023-03-12T00:20:06;100226.53;;;-0.56;77.45
73700;BME280;62005;50.082;8.988;2023-03-12T00:22:53;100273.13;;;-0.36;77.39
73700;BME280;62005;50.082;8.988;2023-03-12T00:28:15;100240.00;;;-0.49;77.15
73700;BME280;62005;50.082;8.988;2023-03-12T00:31:02;100229.84;;;-0.54;77.54
73700;BME280;62005;50.082;8.988;2023-03-12T00:36:06;100202.16;;;-0.77;77.99
73700;BME280;62005;50.082;8.988;2023-03-12T00:38:40;100206.94;;;-0.80;77.50
73700;BME280;62005;50.082;8.988;2023-03-12T00:41:25;100293.09;;;-0.32;78.47
73700;BME280;62005;50.082;8.988;2023-03-12T00:44:17;100240.06;;;-0.67;78.20
73700;BME280;62005;50.082;8.988;2023-03-12T00:46:45;100235.59;;;-0.66;78.41
73700;BME280;62005;50.082;8.988;2023-03-12T00:49:15;100231.25;;;-0.67;78.56
73700;BME280;62005;50.082;8.988;2023-03-12T00:51:46;100203.44;;;-0.81;77.80
73700;BME280;62005;50.082;8.988;2023-03-12T00:54:21;100206.63;;;-0.77;78.06
73700;BME280;62005;50.082;8.988;2023-03-12T00:56:55;100209.97;;;-0.75;78.01
73700;BME280;62005;50.082;8.988;2023-03-12T01:02:28;100251.16;;;-0.46;78.55
73700;BME280;62005;50.082;8.988;2023-03-12T01:04:58;100228.50;;;-0.58;78.12
73700;BME280;62005;50.082;8.988;2023-03-12T01:07:32;100232.66;;;-0.55;78.13
73700;BME280;62005;50.082;8.988;2023-03-12T01:10:06;100203.53;;;-0.73;78.46
73700;BME280;62005;50.082;8.988;2023-03-12T01:15:35;100199.03;;;-0.72;78.02
73700;BME280;62005;50.082;8.988;2023-03-12T01:18:14;100193.72;;;-0.72;78.52
73700;BME280;62005;50.082;8.988;2023-03-12T01:20:59;100213.19;;;-0.64;78.82
73700;BME280;62005;50.082;8.988;2023-03-12T01:23:48;100247.84;;;-0.40;79.02
73700;BME280;62005;50.082;8.988;2023-03-12T01:26:50;100192.28;;;-0.67;79.24
73700;BME280;62005;50.082;8.988;2023-03-12T01:29:43;100272.25;;;-0.19;78.67
73700;BME280;62005;50.082;8.988;2023-03-12T01:32:28;100229.22;;;-0.48;78.89
73700;BME280;62005;50.082;8.988;2023-03-12T01:35:05;100197.59;;;-0.67;79.19
73700;BME280;62005;50.082;8.988;2023-03-12T01:37:44;100230.06;;;-0.47;79.12
73700;BME280;62005;50.082;8.988;2023-03-12T01:40:21;100250.59;;;-0.32;78.96
73700;BME280;62005;50.082;8.988;2023-03-12T01:49:30;100203.63;;;-0.57;78.92
73700;BME280;62005;50.082;8.988;2023-03-12T01:52:36;100218.94;;;-0.51;78.47
73700;BME280;62005;50.082;8.988;2023-03-12T01:59:01;100263.91;;;-0.24;78.39
73700;BME280;62005;50.082;8.988;2023-03-12T02:01:45;100222.78;;;-0.45;78.59
73700;BME280;62005;50.082;8.988;2023-03-12T02:04:21;100193.34;;;-0.60;79.21
73700;BME280;62005;50.082;8.988;2023-03-12T02:07:05;100259.03;;;-0.11;78.74
73700;BME280;62005;50.082;8.988;2023-03-12T02:12:28;100180.06;;;-0.60;79.14
73700;BME280;62005;50.082;8.988;2023-03-12T02:15:02;100172.75;;;-0.58;78.74
73700;BME280;62005;50.082;8.988;2023-03-12T02:18:12;100165.63;;;-0.57;78.40
73700;BME280;62005;50.082;8.988;2023-03-12T02:21:36;100254.75;;;-0.04;78.59
73700;BME280;62005;50.082;8.988;2023-03-12T02:27:46;100163.81;;;-0.57;79.00
73700;BME280;62005;50.082;8.988;2023-03-12T02:30:29;100171.47;;;-0.54;78.97
73700;BME280;62005;50.082;8.988;2023-03-12T02:33:07;100167.06;;;-0.63;79.62
73700;BME280;62005;50.082;8.988;2023-03-12T02:35:54;100164.78;;;-0.58;79.81
73700;BME280;62005;50.082;8.988;2023-03-12T02:41:55;100249.72;;;-0.07;79.79
73700;BME280;62005;50.082;8.988;2023-03-12T02:47:44;100210.09;;;-0.34;80.71
73700;BME280;62005;50.082;8.988;2023-03-12T02:50:31;100202.06;;;-0.42;80.67
73700;BME280;62005;50.082;8.988;2023-03-12T02:53:25;100231.72;;;-0.21;80.48
73700;BME280;62005;50.082;8.988;2023-03-12T02:56:13;100194.75;;;-0.40;80.43
73700;BME280;62005;50.082;8.988;2023-03-12T03:02:12;100192.09;;;-0.40;80.23
73700;BME280;62005;50.082;8.988;2023-03-12T03:04:47;100167.81;;;-0.53;80.15
73700;BME280;62005;50.082;8.988;2023-03-12T03:10:39;100187.69;;;-0.31;80.20
73700;BME280;62005;50.082;8.988;2023-03-12T03:13:39;100153.56;;;-0.52;80.21
73700;BME280;62005;50.082;8.988;2023-03-12T03:16:35;100154.25;;;-0.50;79.89
73700;BME280;62005;50.082;8.988;2023-03-12T03:22:34;100174.88;;;-0.36;79.86
73700;BME280;62005;50.082;8.988;2023-03-12T03:25:11;100138.31;;;-0.50;79.89
73700;BME280;62005;50.082;8.988;2023-03-12T03:28:12;100152.59;;;-0.43;80.06
73700;BME280;62005;50.082;8.988;2023-03-12T03:31:14;100187.59;;;-0.22;79.54
73700;BME280;62005;50.082;8.988;2023-03-12T03:36:48;100165.31;;;-0.29;79.65
73700;BME280;62005;50.082;8.988;2023-03-12T03:42:58;100129.19;;;-0.47;79.61
73700;BME280;62005;50.082;8.988;2023-03-12T03:51:46;100124.03;;;-0.49;79.37
73700;BME280;62005;50.082;8.988;2023-03-12T03:54:28;100118.38;;;-0.54;78.87
73700;BME280;62005;50.082;8.988;2023-03-12T03:57:29;100208.78;;;0.04;79.25
73700;BME280;62005;50.082;8.988;2023-03-12T04:00:12;100127.75;;;-0.42;78.83
73700;BME280;62005;50.082;8.988;2023-03-12T04:06:16;100187.31;;;-0.11;79.31
73700;BME280;62005;50.082;8.988;2023-03-12T04:08:45;100154.03;;;-0.23;79.29
73700;BME280;62005;50.082;8.988;2023-03-12T04:11:39;100125.44;;;-0.37;79.48
73700;BME280;62005;50.082;8.988;2023-03-12T04:15:01;100118.78;;;-0.41;79.51
73700;BME280;62005;50.082;8.988;2023-03-12T04:17:45;100125.44;;;-0.37;79.53
73700;BME280;62005;50.082;8.988;2023-03-12T04:24:12;100121.13;;;-0.30;79.33
73700;BME280;62005;50.082;8.988;2023-03-12T04:26:47;100166.59;;;0.01;79.78
73700;BME280;62005;50.082;8.988;2023-03-12T04:29:26;100103.88;;;-0.34;79.74
73700;BME280;62005;50.082;8.988;2023-03-12T04:35:24;100114.53;;;-0.26;79.73
73700;BME280;62005;50.082;8.988;2023-03-12T04:38:07;100100.91;;;-0.31;79.62
73700;BME280;62005;50.082;8.988;2023-03-12T04:41:23;100156.28;;;-0.02;80.00
73700;BME280;62005;50.082;8.988;2023-03-12T04:47:12;100219.03;;;0.33;80.03
73700;BME280;62005;50.082;8.988;2023-03-12T04:49:44;100186.25;;;0.16;80.42
73700;BME280;62005;50.082;8.988;2023-03-12T04:52:22;100165.44;;;0.03;81.24
73700;BME280;62005;50.082;8.988;2023-03-12T04:55:00;100123.53;;;-0.19;80.58
73700;BME280;62005;50.082;8.988;2023-03-12T04:58:13;100157.78;;;0.00;81.09
73700;BME280;62005;50.082;8.988;2023-03-12T05:01:20;100130.16;;;-0.15;80.53
73700;BME280;62005;50.082;8.988;2023-03-12T05:07:38;100136.19;;;-0.05;80.83
73700;BME280;62005;50.082;8.988;2023-03-12T05:11:12;100220.09;;;0.48;81.15
73700;BME280;62005;50.082;8.988;2023-03-12T05:17:59;100209.78;;;0.53;80.64
73700;BME280;62005;50.082;8.988;2023-03-12T05:24:10;100178.50;;;0.39;80.79
73700;BME280;62005;50.082;8.988;2023-03-12T05:26:51;100113.47;;;0.01;81.05
73700;BME280;62005;50.082;8.988;2023-03-12T05:29:53;100194.81;;;0.60;80.76
73700;BME280;62005;50.082;8.988;2023-03-12T05:33:16;100077.72;;;-0.05;81.05
73700;BME280;62005;50.082;8.988;2023-03-12T05:36:00;100087.91;;;0.08;80.67
73700;BME280;62005;50.082;8.988;2023-03-12T05:45:20;100084.75;;;0.13;80.74
73700;BME280;62005;50.082;8.988;2023-03-12T05:54:33;100091.72;;;0.14;80.96
73700;BME280;62005;50.082;8.988;2023-03-12T05:57:22;100075.78;;;0.06;81.03
73700;BME280;62005;50.082;8.988;2023-03-12T06:06:42;100078.78;;;0.19;80.59
73700;BME280;62005;50.082;8.988;2023-03-12T06:09:36;100159.44;;;0.67;80.28
73700;BME280;62005;50.082;8.988;2023-03-12T06:12:20;100071.97;;;0.16;80.47
73700;BME280;62005;50.082;8.988;2023-03-12T06:14:59;100079.81;;;0.26;80.67
73700;BME280;62005;50.082;8.988;2023-03-12T06:17:58;100117.69;;;0.52;80.88
73700;BME280;62005;50.082;8.988;2023-03-12T06:29:40;100074.16;;;0.45;79.68
73700;BME280;62005;50.082;8.988;2023-03-12T06:32:24;100108.06;;;0.75;80.00
73700;BME280;62005;50.082;8.988;2023-03-12T06:35:03;100101.44;;;0.71;79.23
73700;BME280;62005;50.082;8.988;2023-03-12T06:44:07;100130.50;;;1.04;77.00
73700;BME280;62005;50.082;8.988;2023-03-12T06:47:00;100131.00;;;1.08;76.99
73700;BME280;62005;50.082;8.988;2023-03-12T06:49:53;100076.84;;;0.69;76.40
73700;BME280;62005;50.082;8.988;2023-03-12T06:52:20;100116.38;;;0.96;75.70
73700;BME280;62005;50.082;8.988;2023-03-12T06:54:54;100065.88;;;0.64;75.52
73700;BME280;62005;50.082;8.988;2023-03-12T06:57:38;100088.47;;;0.92;76.28
73700;BME280;62005;50.082;8.988;2023-03-12T07:03:48;100143.28;;;1.33;77.20
73700;BME280;62005;50.082;8.988;2023-03-12T07:10:11;100153.91;;;1.41;76.19
73700;BME280;62005;50.082;8.988;2023-03-12T07:19:23;100139.94;;;1.39;76.88
73700;BME280;62005;50.082;8.988;2023-03-12T07:22:45;100081.09;;;1.10;76.12
73700;BME280;62005;50.082;8.988;2023-03-12T07:25:24;100085.59;;;1.09;76.32
73700;BME280;62005;50.082;8.988;2023-03-12T07:31:19;100157.84;;;1.69;75.51
73700;BME280;62005;50.082;8.988;2023-03-12T07:34:12;100053.81;;;1.16;75.11
73700;BME280;62005;50.082;8.988;2023-03-12T07:46:27;100146.47;;;1.91;74.25
73700;BME280;62005;50.082;8.988;2023-03-12T07:49:00;100091.59;;;1.66;74.97
73700;BME280;62005;50.082;8.988;2023-03-12T07:52:00;100140.91;;;2.01;75.52
73700;BME280;62005;50.082;8.988;2023-03-12T07:55:01;100061.31;;;1.59;74.51
73700;BME280;62005;50.082;8.988;2023-03-12T08:16:30;100130.53;;;2.36;74.16
73700;BME280;62005;50.082;8.988;2023-03-12T08:19:28;100055.84;;;1.91;74.57
73700;BME280;62005;50.082;8.988;2023-03-12T08:22:10;100073.38;;;2.08;75.03
73700;BME280;62005;50.082;8.988;2023-03-12T08:31:11;100120.59;;;2.53;74.95
73700;BME280;62005;50.082;8.988;2023-03-12T08:43:04;100050.53;;;2.14;74.11
73700;BME280;62005;50.082;8.988;2023-03-12T08:45:47;100073.25;;;2.32;74.14
73700;BME280;62005;50.082;8.988;2023-03-12T08:48:37;100107.81;;;2.48;74.68
73700;BME280;62005;50.082;8.988;2023-03-12T09:37:39;100075.09;;;2.54;80.83
73700;BME280;62005;50.082;8.988;2023-03-12T09:40:53;100052.81;;;2.47;80.90
73700;BME280;62005;50.082;8.988;2023-03-12T10:20:52;100129.94;;;3.17;84.93
73700;BME280;62005;50.082;8.988;2023-03-12T13:33:53;100023.31;;;7.00;88.34
73700;BME280;62005;50.082;8.988;2023-03-12T13:36:25;99985.50;;;6.89;87.55
73700;BME280;62005;50.082;8.988;2023-03-12T13:41:52;99958.84;;;6.87;87.61
73700;BME280;62005;50.082;8.988;2023-03-12T13:47:29;99963.38;;;6.93;86.43
73700;BME280;62005;50.082;8.988;2023-03-12T13:50:40;99965.03;;;7.07;86.85
73700;BME280;62005;50.082;8.988;2023-03-12T13:53:25;99943.91;;;7.04;86.88
73700;BME280;62005;50.082;8.988;2023-03-12T13:56:12;99957.94;;;7.19;87.05
73700;BME280;62005;50.082;8.988;2023-03-12T13:58:48;99977.75;;;7.38;87.54
73700;BME280;62005;50.082;8.988;2023-03-12T14:01:22;100013.25;;;7.59;86.05
73700;BME280;62005;50.082;8.988;2023-03-12T14:04:05;99988.25;;;7.52;86.48
73700;BME280;62005;50.082;8.988;2023-03-12T14:12:51;99921.94;;;7.33;86.29
73700;BME280;62005;50.082;8.988;2023-03-12T14:15:58;99925.00;;;7.43;86.59
73700;BME280;62005;50.082;8.988;2023-03-12T14:18:28;99962.28;;;7.77;86.67
73700;BME280;62005;50.082;8.988;2023-03-12T14:21:25;99988.88;;;7.98;86.89
73700;BME280;62005;50.082;8.988;2023-03-12T14:24:00;99919.06;;;7.72;86.43
73700;BME280;62005;50.082;8.988;2023-03-12T14:29:37;99945.22;;;7.97;86.04
73700;BME280;62005;50.082;8.988;2023-03-12T14:35:52;99912.97;;;7.83;86.09
73700;BME280;62005;50.082;8.988;2023-03-12T14:38:31;99907.59;;;7.83;85.49
73700;BME280;62005;50.082;8.988;2023-03-12T14:41:11;99896.44;;;7.86;85.15
73700;BME280;62005;50.082;8.988;2023-03-12T14:44:25;99907.53;;;7.97;85.60
73700;BME280;62005;50.082;8.988;2023-03-12T14:47:25;99919.84;;;8.11;85.40
73700;BME280;62005;50.082;8.988;2023-03-12T14:50:40;99960.25;;;8.42;84.88
73700;BME280;62005;50.082;8.988;2023-03-12T14:54:30;99956.91;;;8.46;85.90
73700;BME280;62005;50.082;8.988;2023-03-12T15:00:23;99953.13;;;8.54;84.99
73700;BME280;62005;50.082;8.988;2023-03-12T15:04:11;99878.41;;;8.12;85.13
73700;BME280;62005;50.082;8.988;2023-03-12T15:07:12;99940.47;;;8.54;85.26
73700;BME280;62005;50.082;8.988;2023-03-12T15:13:31;99875.91;;;8.17;85.34
73700;BME280;62005;50.082;8.988;2023-03-12T15:15:53;99881.66;;;8.27;85.87
73700;BME280;62005;50.082;8.988;2023-03-12T15:18:44;99873.00;;;8.25;85.75
73700;BME280;62005;50.082;8.988;2023-03-12T15:21:19;99898.13;;;8.37;85.87
73700;BME280;62005;50.082;8.988;2023-03-12T15:24:23;99960.59;;;8.76;84.91
73700;BME280;62005;50.082;8.988;2023-03-12T15:27:32;99952.06;;;8.79;85.25
73700;BME280;62005;50.082;8.988;2023-03-12T15:30:26;99947.06;;;8.83;85.30
73700;BME280;62005;50.082;8.988;2023-03-12T15:38:49;99918.91;;;8.79;84.88
73700;BME280;62005;50.082;8.988;2023-03-12T15:41:46;99928.50;;;8.93;85.06
73700;BME280;62005;50.082;8.988;2023-03-12T15:44:28;99886.72;;;8.66;85.32
73700;BME280;62005;50.082;8.988;2023-03-12T15:49:55;99848.69;;;8.56;84.87
73700;BME280;62005;50.082;8.988;2023-03-12T15:52:24;99922.81;;;9.01;85.40
73700;BME280;62005;50.082;8.988;2023-03-12T15:58:00;99931.06;;;9.06;85.23
73700;BME280;62005;50.082;8.988;2023-03-12T16:03:43;99879.91;;;8.81;85.17
73700;BME280;62005;50.082;8.988;2023-03-12T16:06:14;99917.00;;;9.04;84.82
73700;BME280;62005;50.082;8.988;2023-03-12T16:08:44;99933.47;;;9.14;85.32
73700;BME280;62005;50.082;8.988;2023-03-12T16:11:34;99933.03;;;9.17;85.43
73700;BME280;62005;50.082;8.988;2023-03-12T16:14:47;99854.69;;;8.76;85.58
73700;BME280;62005;50.082;8.988;2023-03-12T16:17:38;99918.03;;;9.21;85.73
73700;BME280;62005;50.082;8.988;2023-03-12T16:20:07;99878.13;;;8.93;85.49
73700;BME280;62005;50.082;8.988;2023-03-12T16:22:44;99864.56;;;8.82;85.96
73700;BME280;62005;50.082;8.988;2023-03-12T16:25:15;99926.28;;;9.26;85.22
73700;BME280;62005;50.082;8.988;2023-03-12T16:27:52;99904.84;;;9.13;85.05
73700;BME280;62005;50.082;8.988;2023-03-12T16:30:31;99861.41;;;8.85;85.37
73700;BME280;62005;50.082;8.988;2023-03-12T16:33:06;99852.56;;;8.78;85.15
73700;BME280;62005;50.082;8.988;2023-03-12T16:35:43;99924.34;;;9.15;85.25
73700;BME280;62005;50.082;8.988;2023-03-12T16:38:21;99869.06;;;8.88;85.05
73700;BME280;62005;50.082;8.988;2023-03-12T16:41:12;99911.47;;;9.17;85.15
73700;BME280;62005;50.082;8.988;2023-03-12T16:43:45;99854.53;;;8.89;85.11
73700;BME280;62005;50.082;8.988;2023-03-12T16:46:20;99939.47;;;9.34;84.97
73700;BME280;62005;50.082;8.988;2023-03-12T16:48:54;99874.00;;;8.91;84.89
73700;BME280;62005;50.082;8.988;2023-03-12T16:51:22;99933.75;;;9.24;85.37
73700;BME280;62005;50.082;8.988;2023-03-12T16:56:43;99866.50;;;8.93;85.23
73700;BME280;62005;50.082;8.988;2023-03-12T16:59:36;99942.31;;;9.39;85.61
73700;BME280;62005;50.082;8.988;2023-03-12T17:02:12;99871.44;;;8.96;85.05
73700;BME280;62005;50.082;8.988;2023-03-12T17:04:38;99880.91;;;9.05;84.55
73700;BME280;62005;50.082;8.988;2023-03-12T17:07:17;99906.06;;;9.17;85.09
73700;BME280;62005;50.082;8.988;2023-03-12T17:09:42;99899.47;;;9.13;84.84
73700;BME280;62005;50.082;8.988;2023-03-12T17:15:14;99865.31;;;8.89;84.83
73700;BME280;62005;50.082;8.988;2023-03-12T17:18:08;99889.91;;;8.99;84.82
73700;BME280;62005;50.082;8.988;2023-03-12T17:20:37;99878.06;;;9.00;84.83
73700;BME280;62005;50.082;8.988;2023-03-12T17:23:22;99877.28;;;8.93;84.51
73700;BME280;62005;50.082;8.988;2023-03-12T17:28:54;99916.84;;;9.17;84.46
73700;BME280;62005;50.082;8.988;2023-03-12T17:31:29;99931.66;;;9.26;84.14
73700;BME280;62005;50.082;8.988;2023-03-12T17:37:30;99902.91;;;9.02;84.46
73700;BME280;62005;50.082;8.988;2023-03-12T17:40:03;99945.31;;;9.31;83.87
73700;BME280;62005;50.082;8.988;2023-03-12T17:42:57;99902.47;;;9.05;83.70
73700;BME280;62005;50.082;8.988;2023-03-12T17:45:25;99908.75;;;8.99;83.80
73700;BME280;62005;50.082;8.988;2023-03-12T17:48:01;99915.94;;;9.05;83.38
73700;BME280;62005;50.082;8.988;2023-03-12T17:50:38;99935.72;;;9.17;83.58
73700;BME280;62005;50.082;8.988;2023-03-12T17:53:20;99936.75;;;9.16;82.77
73700;BME280;62005;50.082;8.988;2023-03-12T17:55:48;99931.38;;;9.16;82.47
73700;BME280;62005;50.082;8.988;2023-03-12T17:58:31;99977.91;;;9.48;81.21
73700;BME280;62005;50.082;8.988;2023-03-12T18:01:05;99961.56;;;9.43;81.72
73700;BME280;62005;50.082;8.988;2023-03-12T18:03:31;99929.88;;;9.20;81.35
73700;BME280;62005;50.082;8.988;2023-03-12T18:05:56;99935.50;;;9.18;80.83
73700;BME280;62005;50.082;8.988;2023-03-12T18:11:16;99940.59;;;9.27;80.91
73700;BME280;62005;50.082;8.988;2023-03-12T18:22:43;99972.44;;;9.54;77.72
73700;BME280;62005;50.082;8.988;2023-03-12T18:29:11;99972.72;;;9.64;77.32
73700;BME280;62005;50.082;8.988;2023-03-12T20:23:02;99976.28;;;10.12;73.64
73700;BME280;62005;50.082;8.988;2023-03-12T20:35:50;100019.59;;;10.35;74.12
73700;BME280;62005;50.082;8.988;2023-03-12T20:45:11;99938.25;;;9.96;74.06
73700;BME280;62005;50.082;8.988;2023-03-12T20:48:20;99934.13;;;9.93;74.49
73700;BME280;62005;50.082;8.988;2023-03-12T21:30:20;99923.75;;;9.79;73.72
73700;BME280;62005;50.082;8.988;2023-03-12T22:20:00;99947.63;;;10.11;74.17
73700;BME280;62005;50.082;8.988;2023-03-12T22:22:31;99914.94;;;10.01;74.02
73700;BME280;62005;50.082;8.988;2023-03-12T22:27:32;99872.69;;;9.77;73.46
73700;BME280;62005;50.082;8.988;2023-03-12T22:51:26;99910.25;;;10.08;74.55
73700;BME280;62005;50.082;8.988;2023-03-12T22:54:09;99863.31;;;9.80;74.17
73700;BME280;62005;50.082;8.988;2023-03-12T22:56:38;99848.41;;;9.77;74.40
73700;BME280;62005;50.082;8.988;2023-03-12T22:59:04;99847.38;;;9.78;74.75
73700;BME280;62005;50.082;8.988;2023-03-12T23:01:35;99816.69;;;9.61;73.97
73700;BME280;62005;50.082;8.988;2023-03-12T23:04:18;99830.09;;;9.79;74.21
73700;BME280;62005;50.082;8.988;2023-03-12T23:06:46;99814.94;;;9.67;74.14
73700;BME280;62005;50.082;8.988;2023-03-12T23:09:32;99821.41;;;9.77;74.79
73700;BME280;62005;50.082;8.988;2023-03-12T23:11:57;99807.50;;;9.62;74.54
73700;BME280;62005;50.082;8.988;2023-03-12T23:14:28;99868.44;;;9.99;74.83
73700;BME280;62005;50.082;8.988;2023-03-12T23:16:56;99794.50;;;9.59;74.45
73700;BME280;62005;50.082;8.988;2023-03-12T23:19:24;99823.88;;;9.79;74.57
73700;BME280;62005;50.082;8.988;2023-03-12T23:21:52;99800.50;;;9.61;74.57
73700;BME280;62005;50.082;8.988;2023-03-12T23:24:19;99798.25;;;9.58;74.79
73700;BME280;62005;50.082;8.988;2023-03-12T23:26:48;99843.28;;;9.87;75.02
73700;BME280;62005;50.082;8.988;2023-03-12T23:29:14;99800.50;;;9.61;74.83
73700;BME280;62005;50.082;8.988;2023-03-12T23:31:39;99793.91;;;9.57;74.96
73700;BME280;62005;50.082;8.988;2023-03-12T23:34:08;99782.97;;;9.52;75.42
73700;BME280;62005;50.082;8.988;2023-03-12T23:36:34;99802.84;;;9.69;75.17
73700;BME280;62005;50.082;8.988;2023-03-12T23:39:02;99801.22;;;9.68;75.52
73700;BME280;62005;50.082;8.988;2023-03-12T23:41:31;99797.91;;;9.66;75.83
73700;BME280;62005;50.082;8.988;2023-03-12T23:43:59;99788.50;;;9.57;76.04
73700;BME280;62005;50.082;8.988;2023-03-12T23:46:30;99756.69;;;9.48;75.75
73700;BME280;62005;50.082;8.988;2023-03-12T23:48:58;99760.34;;;9.53;75.91
73700;BME280;62005;50.082;8.988;2023-03-12T23:51:27;99797.00;;;9.72;75.98
73700;BME280;62005;50.082;8.988;2023-03-12T23:54:02;99765.75;;;9.53;75.72
73700;BME280;62005;50.082;8.988;2023-03-12T23:56:36;99794.75;;;9.69;75.64
73700;BME280;62005;50.082;8.988;2023-03-12T23:59:09;99779.28;;;9.65;75.81
